createdAt,value
2022-11-25T00:00:48.038Z,5.73
2022-11-25T00:01:52.285Z,5.74
2022-11-25T00:02:56.466Z,5.76
2022-11-25T00:04:00.453Z,5.77
2022-11-25T00:05:04.780Z,5.78
2022-11-25T00:06:08.911Z,5.79
2022-11-25T00:07:13.045Z,5.80
2022-11-25T00:08:17.223Z,5.80
2022-11-25T00:09:21.413Z,5.79
2022-11-25T00:10:25.559Z,5.77
2022-11-25T00:11:29.723Z,5.75
2022-11-25T00:12:33.902Z,5.72
2022-11-25T00:13:38.054Z,5.70
2022-11-25T00:14:42.133Z,5.69
2022-11-25T00:15:46.379Z,5.70
2022-11-25T00:16:50.595Z,5.70
2022-11-25T00:17:54.848Z,5.70
2022-11-25T00:18:58.921Z,5.69
2022-11-25T00:20:03.080Z,5.69
2022-11-25T00:21:07.288Z,5.68
2022-11-25T00:22:11.456Z,5.68
2022-11-25T00:23:15.751Z,5.68
2022-11-25T00:24:19.841Z,5.68
2022-11-25T00:25:23.949Z,5.69
2022-11-25T00:26:28.169Z,5.69
2022-11-25T00:27:32.298Z,5.69
2022-11-25T00:28:36.462Z,5.69
2022-11-25T00:29:40.684Z,5.70
2022-11-25T00:30:44.932Z,5.70
2022-11-25T00:31:49.237Z,5.69
2022-11-25T00:32:53.239Z,5.68
2022-11-25T00:33:57.512Z,5.66
2022-11-25T00:35:01.752Z,5.65
2022-11-25T00:36:05.957Z,5.65
2022-11-25T00:37:10.068Z,5.65
2022-11-25T00:38:14.322Z,5.65
2022-11-25T00:39:18.444Z,5.65
2022-11-25T00:40:25.574Z,5.65
2022-11-25T00:41:28.684Z,5.65
2022-11-25T00:42:32.886Z,5.64
2022-11-25T00:43:37.051Z,5.63
2022-11-25T00:44:42.030Z,5.60
2022-11-25T00:45:45.416Z,5.58
2022-11-25T00:47:03.586Z,5.55
2022-11-25T00:48:06.587Z,5.52
2022-11-25T00:49:10.603Z,5.51
2022-11-25T00:50:14.883Z,5.50
2022-11-25T00:51:19.006Z,5.49
2022-11-25T00:52:23.162Z,5.48
2022-11-25T00:53:27.330Z,5.47
2022-11-25T00:54:31.615Z,5.46
2022-11-25T00:55:35.716Z,5.46
2022-11-25T00:56:39.920Z,5.48
2022-11-25T00:57:44.178Z,5.50
2022-11-25T00:58:48.289Z,5.53
2022-11-25T00:59:52.489Z,5.55
2022-11-25T01:00:56.704Z,5.56
2022-11-25T01:02:00.864Z,5.57
2022-11-25T01:03:05.036Z,5.59
2022-11-25T01:04:09.175Z,5.60
2022-11-25T01:05:13.326Z,5.59
2022-11-25T01:06:17.400Z,5.58
2022-11-25T01:07:21.750Z,5.56
2022-11-25T01:08:25.845Z,5.55
2022-11-25T01:09:30.043Z,5.55
2022-11-25T01:10:34.177Z,5.54
2022-11-25T01:11:38.312Z,5.51
2022-11-25T01:12:42.509Z,5.48
2022-11-25T01:13:46.513Z,5.43
2022-11-25T01:14:50.726Z,5.38
2022-11-25T01:15:54.890Z,5.34
2022-11-25T01:16:59.093Z,5.31
2022-11-25T01:18:03.274Z,5.30
2022-11-25T01:19:07.352Z,5.31
2022-11-25T01:20:11.582Z,5.32
2022-11-25T01:21:15.641Z,5.36
2022-11-25T01:22:19.877Z,5.38
2022-11-25T01:23:24.050Z,5.41
2022-11-25T01:24:28.206Z,5.42
2022-11-25T01:25:32.256Z,5.41
2022-11-25T01:26:36.534Z,5.40
2022-11-25T01:27:40.667Z,5.39
2022-11-25T01:28:44.800Z,5.37
2022-11-25T01:29:48.978Z,5.34
2022-11-25T01:30:53.181Z,5.33
2022-11-25T01:31:57.302Z,5.32
2022-11-25T01:33:01.427Z,5.31
2022-11-25T01:34:05.655Z,5.31
2022-11-25T01:35:09.852Z,5.31
2022-11-25T01:36:13.899Z,5.31
2022-11-25T01:37:18.145Z,5.31
2022-11-25T01:38:22.427Z,5.30
2022-11-25T01:39:32.148Z,5.28
2022-11-25T01:40:30.776Z,5.26
2022-11-25T01:41:35.001Z,5.25
2022-11-25T01:42:39.115Z,5.25
2022-11-25T01:43:43.261Z,5.26
2022-11-25T01:44:47.322Z,5.27
2022-11-25T01:45:51.579Z,5.30
2022-11-25T01:46:55.717Z,5.32
2022-11-25T01:47:59.896Z,5.35
2022-11-25T01:49:04.057Z,5.37
2022-11-25T01:50:08.229Z,5.40
2022-11-25T01:51:12.304Z,5.42
2022-11-25T01:52:16.555Z,5.44
2022-11-25T01:53:20.745Z,5.46
2022-11-25T01:54:24.912Z,5.48
2022-11-25T01:55:29.082Z,5.50
2022-11-25T01:56:33.216Z,5.50
2022-11-25T01:57:37.419Z,5.51
2022-11-25T01:58:41.615Z,5.52
2022-11-25T01:59:45.863Z,5.53
2022-11-25T02:00:50.037Z,5.54
2022-11-25T02:01:54.221Z,5.54
2022-11-25T02:02:58.307Z,5.55
2022-11-25T02:04:02.510Z,5.56
2022-11-25T02:05:06.665Z,5.56
2022-11-25T02:06:10.747Z,5.56
2022-11-25T02:07:15.037Z,5.56
2022-11-25T02:08:19.112Z,5.56
2022-11-25T02:09:23.310Z,5.56
2022-11-25T02:10:27.633Z,5.56
2022-11-25T02:11:31.707Z,5.56
2022-11-25T02:12:35.843Z,5.56
2022-11-25T02:13:40.006Z,5.56
2022-11-25T02:14:44.214Z,5.56
2022-11-25T02:15:48.331Z,5.57
2022-11-25T02:16:52.530Z,5.57
2022-11-25T02:17:56.673Z,5.58
2022-11-25T02:19:00.843Z,5.59
2022-11-25T02:20:05.031Z,5.59
2022-11-25T02:21:09.176Z,5.60
2022-11-25T02:22:13.376Z,5.61
2022-11-25T02:23:17.573Z,5.62
2022-11-25T02:24:21.832Z,5.62
2022-11-25T02:25:25.944Z,5.64
2022-11-25T02:26:30.100Z,5.64
2022-11-25T02:27:34.366Z,5.65
2022-11-25T02:28:38.484Z,5.65
2022-11-25T02:29:42.631Z,5.65
2022-11-25T02:30:46.882Z,5.65
2022-11-25T02:31:51.055Z,5.64
2022-11-25T02:32:55.247Z,5.64
2022-11-25T02:33:59.395Z,5.64
2022-11-25T02:35:03.581Z,5.64
2022-11-25T02:36:07.869Z,5.64
2022-11-25T02:37:11.862Z,5.63
2022-11-25T02:38:16.095Z,5.63
2022-11-25T02:39:20.293Z,5.63
2022-11-25T02:40:24.568Z,5.63
2022-11-25T02:41:28.728Z,5.63
2022-11-25T02:42:32.905Z,5.63
2022-11-25T02:43:37.056Z,5.62
2022-11-25T02:44:41.224Z,5.60
2022-11-25T02:45:45.508Z,5.59
2022-11-25T02:46:49.710Z,5.59
2022-11-25T02:47:53.710Z,5.58
2022-11-25T02:49:13.503Z,5.58
2022-11-25T02:50:02.202Z,5.57
2022-11-25T02:51:06.378Z,5.57
2022-11-25T02:52:10.653Z,5.57
2022-11-25T02:53:14.815Z,5.58
2022-11-25T02:54:18.965Z,5.58
2022-11-25T02:55:23.051Z,5.58
2022-11-25T02:56:27.284Z,5.57
2022-11-25T02:57:31.437Z,5.57
2022-11-25T02:58:35.702Z,5.57
2022-11-25T02:59:39.753Z,5.57
2022-11-25T03:00:43.937Z,5.57
2022-11-25T03:01:48.127Z,5.58
2022-11-25T03:02:52.310Z,5.58
2022-11-25T03:03:56.429Z,5.59
2022-11-25T03:05:00.652Z,5.59
2022-11-25T03:06:04.911Z,5.59
2022-11-25T03:07:09.233Z,5.61
2022-11-25T03:08:13.170Z,5.62
2022-11-25T03:09:17.492Z,5.62
2022-11-25T03:10:21.634Z,5.63
2022-11-25T03:11:25.859Z,5.63
2022-11-25T03:12:30.023Z,5.63
2022-11-25T03:13:34.061Z,5.64
2022-11-25T03:14:38.386Z,5.64
2022-11-25T03:15:42.486Z,5.63
2022-11-25T03:16:46.736Z,5.64
2022-11-25T03:17:50.713Z,5.64
2022-11-25T03:18:55.091Z,5.65
2022-11-25T03:19:59.171Z,5.65
2022-11-25T03:21:03.260Z,5.64
2022-11-25T03:22:07.478Z,5.64
2022-11-25T03:23:11.643Z,5.64
2022-11-25T03:24:15.787Z,5.65
2022-11-25T03:25:19.956Z,5.65
2022-11-25T03:26:24.119Z,5.65
2022-11-25T03:27:30.365Z,5.65
2022-11-25T03:28:32.481Z,5.64
2022-11-25T03:29:36.667Z,5.64
2022-11-25T03:30:40.678Z,5.63
2022-11-25T03:31:44.930Z,5.63
2022-11-25T03:32:49.001Z,5.63
2022-11-25T03:33:53.171Z,5.63
2022-11-25T03:34:57.339Z,5.62
2022-11-25T03:36:01.542Z,5.61
2022-11-25T03:37:05.676Z,5.61
2022-11-25T03:38:09.707Z,5.62
2022-11-25T03:39:13.954Z,5.61
2022-11-25T03:40:18.088Z,5.61
2022-11-25T03:41:22.269Z,5.60
2022-11-25T03:42:26.432Z,5.60
2022-11-25T03:43:30.707Z,5.59
2022-11-25T03:44:35.192Z,5.59
2022-11-25T03:45:39.026Z,5.58
2022-11-25T03:46:43.129Z,5.58
2022-11-25T03:47:47.345Z,5.58
2022-11-25T03:48:51.485Z,5.58
2022-11-25T03:49:55.772Z,5.57
2022-11-25T03:50:59.931Z,5.52
2022-11-25T03:52:03.964Z,5.46
2022-11-25T03:53:08.185Z,5.41
2022-11-25T03:54:12.448Z,5.38
2022-11-25T03:55:16.577Z,5.37
2022-11-25T03:56:20.638Z,5.36
2022-11-25T03:57:24.817Z,5.35
2022-11-25T03:58:29.080Z,5.36
2022-11-25T03:59:33.279Z,5.37
2022-11-25T04:00:37.424Z,5.38
2022-11-25T04:01:44.365Z,5.40
2022-11-25T04:02:45.898Z,5.41
2022-11-25T04:03:49.991Z,5.42
2022-11-25T04:04:54.052Z,5.43
2022-11-25T04:05:58.357Z,5.43
2022-11-25T04:07:02.500Z,5.43
2022-11-25T04:08:06.717Z,5.43
2022-11-25T04:09:10.822Z,5.42
2022-11-25T04:10:15.075Z,5.43
2022-11-25T04:11:19.190Z,5.44
2022-11-25T04:12:23.434Z,5.43
2022-11-25T04:13:27.596Z,5.42
2022-11-25T04:14:31.850Z,5.41
2022-11-25T04:15:35.958Z,5.41
2022-11-25T04:16:40.136Z,5.41
2022-11-25T04:17:44.267Z,5.41
2022-11-25T04:18:48.589Z,5.41
2022-11-25T04:19:52.681Z,5.41
2022-11-25T04:20:56.856Z,5.41
2022-11-25T04:22:00.942Z,5.40
2022-11-25T04:23:05.186Z,5.39
2022-11-25T04:24:09.300Z,5.38
2022-11-25T04:25:13.489Z,5.35
2022-11-25T04:26:17.667Z,5.34
2022-11-25T04:27:21.821Z,5.33
2022-11-25T04:28:25.964Z,5.32
2022-11-25T04:29:30.006Z,5.30
2022-11-25T04:30:34.217Z,5.29
2022-11-25T04:31:38.405Z,5.27
2022-11-25T04:32:42.522Z,5.27
2022-11-25T04:33:52.217Z,5.26
2022-11-25T04:34:50.929Z,5.25
2022-11-25T04:35:55.051Z,5.22
2022-11-25T04:36:59.233Z,5.20
2022-11-25T04:38:03.400Z,5.18
2022-11-25T04:39:07.606Z,5.18
2022-11-25T04:40:11.733Z,5.14
2022-11-25T04:41:15.897Z,5.11
2022-11-25T04:42:20.085Z,5.04
2022-11-25T04:43:24.369Z,4.98
2022-11-25T04:44:28.589Z,4.89
2022-11-25T04:45:51.479Z,4.84
2022-11-25T04:46:36.976Z,4.81
2022-11-25T04:47:41.037Z,4.79
2022-11-25T04:48:45.181Z,4.78
2022-11-25T04:49:49.345Z,4.75
2022-11-25T04:50:53.478Z,4.72
2022-11-25T04:51:57.528Z,4.70
2022-11-25T04:53:01.738Z,4.70
2022-11-25T04:54:05.916Z,4.72
2022-11-25T04:55:10.078Z,4.74
2022-11-25T04:56:14.194Z,4.75
2022-11-25T04:57:18.384Z,4.74
2022-11-25T04:58:22.524Z,4.73
2022-11-25T04:59:26.704Z,4.73
2022-11-25T05:00:30.868Z,4.74
2022-11-25T05:01:35.138Z,4.76
2022-11-25T05:02:39.241Z,4.74
2022-11-25T05:03:48.753Z,4.70
2022-11-25T05:04:47.542Z,4.66
2022-11-25T05:05:51.621Z,4.62
2022-11-25T05:06:55.925Z,4.58
2022-11-25T05:08:00.022Z,4.56
2022-11-25T05:09:04.167Z,4.57
2022-11-25T05:10:08.328Z,4.58
2022-11-25T05:11:12.618Z,4.55
2022-11-25T05:12:16.706Z,4.52
2022-11-25T05:13:20.868Z,4.47
2022-11-25T05:14:24.974Z,4.42
2022-11-25T05:15:29.132Z,4.38
2022-11-25T05:16:33.366Z,4.36
2022-11-25T05:17:37.473Z,4.34
2022-11-25T05:18:41.603Z,4.32
2022-11-25T05:19:45.871Z,4.29
2022-11-25T05:20:49.959Z,4.28
2022-11-25T05:21:54.082Z,4.26
2022-11-25T05:22:58.223Z,4.23
2022-11-25T05:24:02.362Z,4.22
2022-11-25T05:25:06.499Z,4.23
2022-11-25T05:26:10.655Z,4.23
2022-11-25T05:27:14.846Z,4.25
2022-11-25T05:28:19.063Z,4.26
2022-11-25T05:29:23.142Z,4.26
2022-11-25T05:30:27.434Z,4.26
2022-11-25T05:31:31.446Z,4.25
2022-11-25T05:32:35.626Z,4.25
2022-11-25T05:33:39.734Z,4.25
2022-11-25T05:34:44.020Z,4.24
2022-11-25T05:35:48.196Z,4.23
2022-11-25T05:36:52.272Z,4.21
2022-11-25T05:37:56.526Z,4.21
2022-11-25T05:39:00.616Z,4.20
2022-11-25T05:40:04.898Z,4.15
2022-11-25T05:41:08.969Z,4.13
2022-11-25T05:42:13.166Z,4.13
2022-11-25T05:43:17.343Z,4.12
2022-11-25T05:44:23.257Z,4.12
2022-11-25T05:45:25.708Z,4.12
2022-11-25T05:46:30.002Z,4.12
2022-11-25T05:47:34.008Z,4.12
2022-11-25T05:48:38.224Z,4.11
2022-11-25T05:49:42.400Z,4.08
2022-11-25T05:50:46.611Z,4.06
2022-11-25T05:51:50.755Z,4.05
2022-11-25T05:52:54.901Z,4.05
2022-11-25T05:53:59.163Z,4.05
2022-11-25T05:55:03.292Z,4.03
2022-11-25T05:56:07.446Z,4.01
2022-11-25T05:57:11.679Z,3.99
2022-11-25T05:58:15.907Z,3.98
2022-11-25T05:59:20.131Z,3.97
2022-11-25T06:00:26.724Z,3.96
2022-11-25T06:01:28.423Z,3.96
2022-11-25T06:02:32.737Z,3.96
2022-11-25T06:03:36.873Z,3.96
2022-11-25T06:04:40.929Z,3.96
2022-11-25T06:05:45.060Z,3.95
2022-11-25T06:06:49.238Z,3.96
2022-11-25T06:07:53.451Z,3.96
2022-11-25T06:08:57.497Z,3.96
2022-11-25T06:10:03.449Z,3.97
2022-11-25T06:11:05.804Z,3.98
2022-11-25T06:12:09.932Z,3.99
2022-11-25T06:13:14.060Z,4.01
2022-11-25T06:14:18.280Z,4.01
2022-11-25T06:15:22.480Z,4.01
2022-11-25T06:16:26.697Z,4.01
2022-11-25T06:17:30.702Z,4.02
2022-11-25T06:18:34.905Z,4.03
2022-11-25T06:19:39.042Z,4.03
2022-11-25T06:20:43.273Z,4.04
2022-11-25T06:21:47.450Z,4.04
2022-11-25T06:22:51.571Z,4.04
2022-11-25T06:23:55.725Z,4.05
2022-11-25T06:25:03.570Z,4.06
2022-11-25T06:26:04.120Z,4.07
2022-11-25T06:27:08.239Z,4.10
2022-11-25T06:28:13.465Z,4.12
2022-11-25T06:29:16.512Z,4.13
2022-11-25T06:30:20.697Z,4.15
2022-11-25T06:31:24.966Z,4.18
2022-11-25T06:32:29.098Z,4.19
2022-11-25T06:33:33.195Z,4.19
2022-11-25T06:34:37.773Z,4.15
2022-11-25T06:35:41.539Z,4.12
2022-11-25T06:36:45.716Z,4.10
2022-11-25T06:37:49.959Z,4.08
2022-11-25T06:38:54.185Z,4.06
2022-11-25T06:39:58.256Z,4.06
2022-11-25T06:41:02.481Z,4.05
2022-11-25T06:42:06.654Z,4.04
2022-11-25T06:43:10.783Z,4.04
2022-11-25T06:44:14.945Z,4.04
2022-11-25T06:45:19.180Z,4.04
2022-11-25T06:46:25.420Z,4.06
2022-11-25T06:47:27.515Z,4.06
2022-11-25T06:48:31.743Z,4.07
2022-11-25T06:49:35.748Z,4.08
2022-11-25T06:50:39.979Z,4.07
2022-11-25T06:51:44.246Z,4.07
2022-11-25T06:52:48.449Z,4.06
2022-11-25T06:53:52.535Z,4.05
2022-11-25T06:54:56.667Z,4.04
2022-11-25T06:56:00.961Z,4.05
2022-11-25T06:57:05.044Z,4.05
2022-11-25T06:58:34.536Z,4.05
2022-11-25T06:59:13.451Z,4.05
2022-11-25T07:00:17.546Z,4.06
2022-11-25T07:01:21.824Z,4.06
2022-11-25T07:02:25.991Z,4.06
2022-11-25T07:03:30.160Z,4.06
2022-11-25T07:04:34.570Z,4.06
2022-11-25T07:05:38.440Z,4.05
2022-11-25T07:06:42.638Z,4.06
2022-11-25T07:07:46.967Z,4.07
2022-11-25T07:08:51.029Z,4.08
2022-11-25T07:09:55.176Z,4.09
2022-11-25T07:10:59.343Z,4.09
2022-11-25T07:12:03.465Z,4.10
2022-11-25T07:13:07.608Z,4.10
2022-11-25T07:14:14.812Z,4.11
2022-11-25T07:15:18.009Z,4.12
2022-11-25T07:16:22.223Z,4.13
2022-11-25T07:17:26.333Z,4.14
2022-11-25T07:18:30.434Z,4.16
2022-11-25T07:19:34.609Z,4.18
2022-11-25T07:20:38.740Z,4.19
2022-11-25T07:21:42.917Z,4.21
2022-11-25T07:22:47.188Z,4.23
2022-11-25T07:23:51.301Z,4.24
2022-11-25T07:24:55.421Z,4.25
2022-11-25T07:25:59.593Z,4.27
2022-11-25T07:27:03.745Z,4.29
2022-11-25T07:28:07.897Z,4.32
2022-11-25T07:31:21.241Z,4.34
2022-11-25T07:31:23.656Z,4.35
2022-11-25T07:32:24.694Z,4.37
2022-11-25T07:33:28.901Z,4.41
2022-11-25T07:34:33.106Z,4.44
2022-11-25T07:35:37.277Z,4.46
2022-11-25T07:36:41.430Z,4.45
2022-11-25T07:37:45.540Z,4.41
2022-11-25T07:38:49.697Z,4.39
2022-11-25T07:39:53.847Z,4.38
2022-11-25T07:40:58.037Z,4.37
2022-11-25T07:42:02.185Z,4.36
2022-11-25T07:43:06.454Z,4.34
2022-11-25T07:44:10.591Z,4.34
2022-11-25T07:45:14.772Z,4.34
2022-11-25T07:46:24.977Z,4.33
2022-11-25T07:47:23.089Z,4.33
2022-11-25T07:48:27.232Z,4.33
2022-11-25T07:49:31.478Z,4.32
2022-11-25T07:50:35.594Z,4.32
2022-11-25T07:51:39.744Z,4.33
2022-11-25T07:52:43.878Z,4.33
2022-11-25T07:53:48.046Z,4.32
2022-11-25T07:54:52.186Z,4.32
2022-11-25T07:55:56.327Z,4.34
2022-11-25T07:57:00.593Z,4.36
2022-11-25T07:58:04.681Z,4.36
2022-11-25T07:59:08.836Z,4.37
2022-11-25T08:00:12.989Z,4.37
2022-11-25T08:01:17.236Z,4.37
2022-11-25T08:02:21.388Z,4.38
2022-11-25T08:03:28.494Z,4.40
2022-11-25T08:04:31.745Z,4.43
2022-11-25T08:05:35.928Z,4.44
2022-11-25T08:06:40.028Z,4.44
2022-11-25T08:07:44.318Z,4.45
2022-11-25T08:08:48.352Z,4.47
2022-11-25T08:09:52.510Z,4.48
2022-11-25T08:10:56.789Z,4.50
2022-11-25T08:12:00.991Z,4.50
2022-11-25T08:13:04.975Z,4.51
2022-11-25T08:14:09.195Z,4.52
2022-11-25T08:15:13.361Z,4.52
2022-11-25T08:16:17.666Z,4.51
2022-11-25T08:17:21.724Z,4.52
2022-11-25T08:18:25.861Z,4.52
2022-11-25T08:19:31.520Z,4.52
2022-11-25T08:20:34.101Z,4.53
2022-11-25T08:21:38.356Z,4.54
2022-11-25T08:22:42.477Z,4.55
2022-11-25T08:23:46.692Z,4.56
2022-11-25T08:24:50.851Z,4.57
2022-11-25T08:25:55.050Z,4.56
2022-11-25T08:26:59.171Z,4.56
2022-11-25T08:28:03.357Z,4.57
2022-11-25T08:29:07.501Z,4.58
2022-11-25T08:30:11.661Z,4.59
2022-11-25T08:31:15.977Z,4.61
2022-11-25T08:32:20.021Z,4.61
2022-11-25T08:33:24.247Z,4.60
2022-11-25T08:34:28.381Z,4.60
2022-11-25T08:35:32.591Z,4.57
2022-11-25T08:36:36.766Z,4.51
2022-11-25T08:37:40.907Z,4.48
2022-11-25T08:38:45.140Z,4.46
2022-11-25T08:39:53.677Z,4.44
2022-11-25T08:40:53.448Z,4.43
2022-11-25T08:41:57.606Z,4.43
2022-11-25T08:43:01.874Z,4.45
2022-11-25T08:44:06.007Z,4.47
2022-11-25T08:45:10.248Z,4.49
2022-11-25T08:46:14.483Z,4.49
2022-11-25T08:47:18.598Z,4.49
2022-11-25T08:48:22.775Z,4.49
2022-11-25T08:49:26.936Z,4.50
2022-11-25T08:50:31.086Z,4.51
2022-11-25T08:51:35.250Z,4.50
2022-11-25T08:52:40.405Z,4.51
2022-11-25T08:53:44.152Z,4.54
2022-11-25T08:54:48.431Z,4.55
2022-11-25T08:55:52.560Z,4.57
2022-11-25T08:56:56.689Z,4.59
2022-11-25T08:58:00.813Z,4.63
2022-11-25T08:59:05.019Z,4.66
2022-11-25T09:00:09.132Z,4.67
2022-11-25T09:01:13.442Z,4.68
2022-11-25T09:02:17.554Z,4.68
2022-11-25T09:03:21.696Z,4.69
2022-11-25T09:04:25.824Z,4.68
2022-11-25T09:05:29.974Z,4.69
2022-11-25T09:06:34.255Z,4.68
2022-11-25T09:07:38.449Z,4.68
2022-11-25T09:08:42.506Z,4.69
2022-11-25T09:09:46.645Z,4.71
2022-11-25T09:10:50.907Z,4.71
2022-11-25T09:11:55.017Z,4.72
2022-11-25T09:12:59.181Z,4.75
2022-11-25T09:14:03.443Z,4.77
2022-11-25T09:15:07.555Z,4.77
2022-11-25T09:16:11.826Z,4.78
2022-11-25T09:17:15.931Z,4.80
2022-11-25T09:18:20.192Z,4.83
2022-11-25T09:19:24.302Z,4.86
2022-11-25T09:20:28.431Z,4.89
2022-11-25T09:21:32.577Z,4.91
2022-11-25T09:22:36.706Z,4.91
2022-11-25T09:23:40.867Z,4.92
2022-11-25T09:24:45.044Z,4.94
2022-11-25T09:25:49.282Z,4.97
2022-11-25T09:26:53.301Z,5.01
2022-11-25T09:27:57.632Z,5.03
2022-11-25T09:29:01.803Z,5.07
2022-11-25T09:30:05.880Z,5.09
2022-11-25T09:31:10.148Z,5.10
2022-11-25T09:32:14.238Z,5.12
2022-11-25T09:33:18.429Z,5.13
2022-11-25T09:34:22.707Z,5.15
2022-11-25T09:35:26.788Z,5.18
2022-11-25T09:36:30.870Z,5.20
2022-11-25T09:37:35.090Z,5.21
2022-11-25T09:38:43.140Z,5.22
2022-11-25T09:39:43.320Z,5.24
2022-11-25T09:40:47.578Z,5.26
2022-11-25T09:41:54.804Z,5.28
2022-11-25T09:42:57.995Z,5.30
2022-11-25T09:44:02.127Z,5.32
2022-11-25T09:45:06.254Z,5.32
2022-11-25T09:46:10.604Z,5.33
2022-11-25T09:47:14.662Z,5.34
2022-11-25T09:48:18.847Z,5.31
2022-11-25T09:49:22.927Z,5.32
2022-11-25T09:50:27.190Z,5.33
2022-11-25T09:51:31.251Z,5.36
2022-11-25T09:52:35.358Z,5.39
2022-11-25T09:53:39.602Z,5.42
2022-11-25T09:54:43.746Z,5.41
2022-11-25T09:55:47.979Z,5.41
2022-11-25T09:56:52.119Z,5.41
2022-11-25T09:57:59.422Z,5.41
2022-11-25T09:59:00.464Z,5.43
2022-11-25T10:00:04.672Z,5.45
2022-11-25T10:01:08.893Z,5.47
2022-11-25T10:02:13.105Z,5.50
2022-11-25T10:03:17.345Z,5.50
2022-11-25T10:04:21.340Z,5.51
2022-11-25T10:05:25.391Z,5.50
2022-11-25T10:06:29.706Z,5.51
2022-11-25T10:07:33.698Z,5.52
2022-11-25T10:08:37.809Z,5.52
2022-11-25T10:09:42.068Z,5.53
2022-11-25T10:10:46.237Z,5.55
2022-11-25T10:11:50.411Z,5.58
2022-11-25T10:12:54.482Z,5.61
2022-11-25T10:13:58.615Z,5.63
2022-11-25T10:15:02.835Z,5.63
2022-11-25T10:16:07.060Z,5.65
2022-11-25T10:17:11.057Z,5.67
2022-11-25T10:18:15.408Z,5.69
2022-11-25T10:19:19.448Z,5.71
2022-11-25T10:20:24.581Z,5.70
2022-11-25T10:21:28.273Z,5.69
2022-11-25T10:22:32.523Z,5.69
2022-11-25T10:23:36.601Z,5.69
2022-11-25T10:24:41.532Z,5.69
2022-11-25T10:25:44.872Z,5.67
2022-11-25T10:26:49.084Z,5.62
2022-11-25T10:27:53.174Z,5.61
2022-11-25T10:28:57.287Z,5.61
2022-11-25T10:30:01.558Z,5.62
2022-11-25T10:31:05.680Z,5.58
2022-11-25T10:32:09.940Z,5.58
2022-11-25T10:33:20.098Z,5.55
2022-11-25T10:34:22.712Z,5.55
2022-11-25T10:35:26.906Z,5.58
2022-11-25T10:36:31.093Z,5.60
2022-11-25T10:37:35.265Z,5.61
2022-11-25T10:38:39.330Z,5.63
2022-11-25T10:39:43.589Z,5.62
2022-11-25T10:40:47.665Z,5.62
2022-11-25T10:41:51.788Z,5.63
2022-11-25T10:42:56.015Z,5.66
2022-11-25T10:44:00.051Z,5.68
2022-11-25T10:45:04.171Z,5.68
2022-11-25T10:46:08.560Z,5.70
2022-11-25T10:47:14.349Z,5.71
2022-11-25T10:48:16.942Z,5.72
2022-11-25T10:49:21.041Z,5.72
2022-11-25T10:50:25.121Z,5.73
2022-11-25T10:51:29.342Z,5.71
2022-11-25T10:52:33.403Z,5.71
2022-11-25T10:53:37.535Z,5.71
2022-11-25T10:54:42.219Z,5.74
2022-11-25T10:55:45.767Z,5.75
2022-11-25T10:56:49.943Z,5.75
2022-11-25T10:57:54.261Z,5.78
2022-11-25T10:58:58.308Z,5.77
2022-11-25T11:00:02.499Z,5.77
2022-11-25T11:01:06.823Z,5.76
2022-11-25T11:02:10.855Z,5.78
2022-11-25T11:03:15.176Z,5.82
2022-11-25T11:04:19.245Z,5.85
2022-11-25T11:05:23.393Z,5.87
2022-11-25T11:06:27.686Z,5.89
2022-11-25T11:07:31.855Z,5.92
2022-11-25T11:08:36.018Z,5.95
2022-11-25T11:09:40.187Z,5.97
2022-11-25T11:10:44.359Z,5.99
2022-11-25T11:11:48.508Z,6.02
2022-11-25T11:12:52.764Z,6.03
2022-11-25T11:13:56.888Z,6.05
2022-11-25T11:15:00.979Z,6.08
2022-11-25T11:16:08.235Z,6.12
2022-11-25T11:17:11.453Z,6.15
2022-11-25T11:18:15.556Z,6.16
2022-11-25T11:19:19.748Z,6.17
2022-11-25T11:20:23.908Z,6.16
2022-11-25T11:21:28.135Z,6.17
2022-11-25T11:22:32.300Z,6.17
2022-11-25T11:23:36.479Z,6.17
2022-11-25T11:24:40.752Z,6.18
2022-11-25T11:25:44.965Z,6.19
2022-11-25T11:26:49.091Z,6.18
2022-11-25T11:27:53.236Z,6.20
2022-11-25T11:28:57.510Z,6.21
2022-11-25T11:30:01.757Z,6.23
2022-11-25T11:31:05.983Z,6.26
2022-11-25T11:32:10.036Z,6.29
2022-11-25T11:33:14.211Z,6.32
2022-11-25T11:34:18.380Z,6.35
2022-11-25T11:35:22.534Z,6.38
2022-11-25T11:36:26.748Z,6.42
2022-11-25T11:37:30.909Z,6.46
2022-11-25T11:38:35.121Z,6.48
2022-11-25T11:39:39.332Z,6.50
2022-11-25T11:40:43.469Z,6.47
2022-11-25T11:41:47.810Z,6.45
2022-11-25T11:42:51.904Z,6.44
2022-11-25T11:43:56.169Z,6.44
2022-11-25T11:45:00.300Z,6.44
2022-11-25T11:46:04.473Z,6.43
2022-11-25T11:47:08.794Z,6.43
2022-11-25T11:48:12.965Z,6.44
2022-11-25T11:49:17.083Z,6.46
2022-11-25T11:50:21.246Z,6.45
2022-11-25T11:51:25.470Z,6.42
2022-11-25T11:52:29.647Z,6.38
2022-11-25T11:53:33.775Z,6.36
2022-11-25T11:54:38.242Z,6.36
2022-11-25T11:55:42.214Z,6.36
2022-11-25T11:56:50.622Z,6.37
2022-11-25T11:57:50.533Z,6.38
2022-11-25T11:58:54.848Z,6.38
2022-11-25T11:59:59.043Z,6.39
2022-11-25T12:01:03.262Z,6.40
2022-11-25T12:02:07.468Z,6.40
2022-11-25T12:03:11.655Z,6.41
2022-11-25T12:04:15.784Z,6.41
2022-11-25T12:05:20.058Z,6.40
2022-11-25T12:06:24.212Z,6.40
2022-11-25T12:07:28.433Z,6.40
2022-11-25T12:08:32.717Z,6.40
2022-11-25T12:09:36.817Z,6.40
2022-11-25T12:10:40.982Z,6.41
2022-11-25T12:11:45.131Z,6.42
2022-11-25T12:12:49.319Z,6.42
2022-11-25T12:13:59.349Z,6.44
2022-11-25T12:14:57.641Z,6.46
2022-11-25T12:16:01.891Z,6.48
2022-11-25T12:17:06.006Z,6.50
2022-11-25T12:18:10.179Z,6.49
2022-11-25T12:19:14.400Z,6.48
2022-11-25T12:20:18.572Z,6.47
2022-11-25T12:21:22.714Z,6.47
2022-11-25T12:22:26.871Z,6.47
2022-11-25T12:23:31.027Z,6.45
2022-11-25T12:24:35.674Z,6.43
2022-11-25T12:25:39.351Z,6.42
2022-11-25T12:26:43.519Z,6.43
2022-11-25T12:27:47.693Z,6.41
2022-11-25T12:28:51.866Z,6.40
2022-11-25T12:29:56.058Z,6.39
2022-11-25T12:31:04.695Z,6.40
2022-11-25T12:32:04.518Z,6.41
2022-11-25T12:33:08.581Z,6.41
2022-11-25T12:34:12.752Z,6.42
2022-11-25T12:35:16.967Z,6.42
2022-11-25T12:36:21.232Z,6.42
2022-11-25T12:37:25.494Z,6.41
2022-11-25T12:38:29.703Z,6.40
2022-11-25T12:39:33.835Z,6.39
2022-11-25T12:40:37.980Z,6.39
2022-11-25T12:41:42.233Z,6.39
2022-11-25T12:42:46.454Z,6.39
2022-11-25T12:43:50.661Z,6.38
2022-11-25T12:44:54.752Z,6.37
2022-11-25T12:45:59.032Z,6.38
2022-11-25T12:47:03.200Z,6.39
2022-11-25T12:48:07.322Z,6.39
2022-11-25T12:49:11.533Z,6.41
2022-11-25T12:50:15.698Z,6.42
2022-11-25T12:51:19.843Z,6.43
2022-11-25T12:52:24.121Z,6.43
2022-11-25T12:53:28.308Z,6.44
2022-11-25T12:54:38.674Z,6.43
2022-11-25T12:55:41.280Z,6.42
2022-11-25T12:56:45.325Z,6.43
2022-11-25T12:57:49.704Z,6.44
2022-11-25T12:58:53.788Z,6.45
2022-11-25T13:00:17.638Z,6.47
2022-11-25T13:01:02.189Z,6.49
2022-11-25T13:02:06.347Z,6.51
2022-11-25T13:03:13.897Z,6.51
2022-11-25T13:04:14.622Z,6.52
2022-11-25T13:05:39.697Z,6.52
2022-11-25T13:06:22.995Z,6.53
2022-11-25T13:07:27.281Z,6.55
2022-11-25T13:08:31.332Z,6.58
2022-11-25T13:09:35.631Z,6.57
2022-11-25T13:10:39.756Z,6.53
2022-11-25T13:11:44.399Z,6.51
2022-11-25T13:12:48.514Z,6.52
2022-11-25T13:13:53.037Z,6.50
2022-11-25T13:14:57.065Z,6.51
2022-11-25T13:16:01.187Z,6.52
2022-11-25T13:17:05.488Z,6.52
2022-11-25T13:18:09.176Z,6.53
2022-11-25T13:19:13.238Z,6.54
2022-11-25T13:20:17.436Z,6.54
2022-11-25T13:21:21.633Z,6.52
2022-11-25T13:22:25.806Z,6.52
2022-11-25T13:23:29.983Z,6.52
2022-11-25T13:24:34.576Z,6.53
2022-11-25T13:25:38.497Z,6.53
2022-11-25T13:26:42.722Z,6.54
2022-11-25T13:27:46.859Z,6.53
2022-11-25T13:28:51.000Z,6.53
2022-11-25T13:29:55.171Z,6.54
2022-11-25T13:30:59.403Z,6.56
2022-11-25T13:32:03.635Z,6.56
2022-11-25T13:33:07.813Z,6.57
2022-11-25T13:34:11.963Z,6.57
2022-11-25T13:35:16.149Z,6.58
2022-11-25T13:36:20.339Z,6.57
2022-11-25T13:37:24.618Z,6.57
2022-11-25T13:38:28.730Z,6.57
2022-11-25T13:39:32.935Z,6.59
2022-11-25T13:40:37.099Z,6.60
2022-11-25T13:41:41.301Z,6.61
2022-11-25T13:42:45.502Z,6.63
2022-11-25T13:43:49.700Z,6.65
2022-11-25T13:44:53.938Z,6.66
2022-11-25T13:45:58.204Z,6.66
2022-11-25T13:47:02.213Z,6.66
2022-11-25T13:48:06.405Z,6.66
2022-11-25T13:49:10.556Z,6.66
2022-11-25T13:50:19.000Z,6.66
2022-11-25T13:51:19.087Z,6.66
2022-11-25T13:52:23.304Z,6.65
2022-11-25T13:53:27.471Z,6.64
2022-11-25T13:54:31.654Z,6.65
2022-11-25T13:55:35.945Z,6.66
2022-11-25T13:56:40.168Z,6.67
2022-11-25T13:57:44.379Z,6.68
2022-11-25T13:58:48.503Z,6.68
2022-11-25T13:59:52.620Z,6.69
2022-11-25T14:00:56.789Z,6.68
2022-11-25T14:02:01.043Z,6.68
2022-11-25T14:03:05.292Z,6.69
2022-11-25T14:04:09.337Z,6.71
2022-11-25T14:05:13.658Z,6.73
2022-11-25T14:06:17.802Z,6.74
2022-11-25T14:07:22.005Z,6.75
2022-11-25T14:08:26.149Z,6.75
2022-11-25T14:09:30.299Z,6.74
2022-11-25T14:10:34.592Z,6.73
2022-11-25T14:11:38.745Z,6.71
2022-11-25T14:12:42.871Z,6.72
2022-11-25T14:13:47.047Z,6.70
2022-11-25T14:14:51.235Z,6.70
2022-11-25T14:15:55.591Z,6.69